sensor_id;sensor_type;location;lat;lon;timestamp;temperature;humidity
69418;DHT22;56610;48.872;2.400;2023-01-13T00:02:25;13.20;99.90
69418;DHT22;56610;48.872;2.400;2023-01-13T00:04:50;13.20;99.90
69418;DHT22;56610;48.872;2.400;2023-01-13T00:07:16;13.30;99.90
69418;DHT22;56610;48.872;2.400;2023-01-13T00:09:42;13.40;99.90
69418;DHT22;56610;48.872;2.400;2023-01-13T00:12:07;13.60;99.90
69418;DHT22;56610;48.872;2.400;2023-01-13T00:14:36;13.70;99.90
69418;DHT22;56610;48.872;2.400;2023-01-13T00:17:03;13.60;99.90
69418;DHT22;56610;48.872;2.400;2023-01-13T00:19:29;13.70;99.90
69418;DHT22;56610;48.872;2.400;2023-01-13T00:21:54;13.70;99.90
69418;DHT22;56610;48.872;2.400;2023-01-13T00:24:20;13.80;99.90
69418;DHT22;56610;48.872;2.400;2023-01-13T00:26:46;13.90;99.90
69418;DHT22;56610;48.872;2.400;2023-01-13T00:29:11;13.80;99.90
69418;DHT22;56610;48.872;2.400;2023-01-13T00:31:37;13.90;99.90
69418;DHT22;56610;48.872;2.400;2023-01-13T00:34:03;13.90;99.90
69418;DHT22;56610;48.872;2.400;2023-01-13T00:36:29;13.80;99.90
69418;DHT22;56610;48.872;2.400;2023-01-13T00:38:55;13.80;99.90
69418;DHT22;56610;48.872;2.400;2023-01-13T00:41:23;13.90;99.90
69418;DHT22;56610;48.872;2.400;2023-01-13T00:43:49;13.90;99.90
69418;DHT22;56610;48.872;2.400;2023-01-13T00:46:17;13.90;99.90
69418;DHT22;56610;48.872;2.400;2023-01-13T00:48:43;13.90;99.90
69418;DHT22;56610;48.872;2.400;2023-01-13T00:51:16;14.00;99.90
69418;DHT22;56610;48.872;2.400;2023-01-13T00:53:44;14.00;99.90
69418;DHT22;56610;48.872;2.400;2023-01-13T00:56:16;14.00;99.90
69418;DHT22;56610;48.872;2.400;2023-01-13T00:58:44;14.00;99.90
69418;DHT22;56610;48.872;2.400;2023-01-13T01:01:15;14.00;99.90
69418;DHT22;56610;48.872;2.400;2023-01-13T01:03:41;13.90;99.90
69418;DHT22;56610;48.872;2.400;2023-01-13T01:06:11;14.00;99.90
69418;DHT22;56610;48.872;2.400;2023-01-13T01:08:36;14.10;99.90
69418;DHT22;56610;48.872;2.400;2023-01-13T01:11:08;14.00;99.90
69418;DHT22;56610;48.872;2.400;2023-01-13T01:13:34;13.90;99.90
69418;DHT22;56610;48.872;2.400;2023-01-13T01:16:07;13.90;99.90
69418;DHT22;56610;48.872;2.400;2023-01-13T01:18:38;13.80;99.90
69418;DHT22;56610;48.872;2.400;2023-01-13T01:21:04;14.00;99.90
69418;DHT22;56610;48.872;2.400;2023-01-13T01:23:31;14.10;99.90
69418;DHT22;56610;48.872;2.400;2023-01-13T01:26:06;14.00;99.90
69418;DHT22;56610;48.872;2.400;2023-01-13T01:28:33;14.00;99.90
69418;DHT22;56610;48.872;2.400;2023-01-13T01:30:59;13.90;99.90
69418;DHT22;56610;48.872;2.400;2023-01-13T01:33:25;13.90;99.90
69418;DHT22;56610;48.872;2.400;2023-01-13T01:35:52;13.90;99.90
69418;DHT22;56610;48.872;2.400;2023-01-13T01:38:17;13.80;99.90
69418;DHT22;56610;48.872;2.400;2023-01-13T01:40:45;13.70;99.90
69418;DHT22;56610;48.872;2.400;2023-01-13T01:43:14;13.80;99.90
69418;DHT22;56610;48.872;2.400;2023-01-13T01:45:59;13.70;99.90
69418;DHT22;56610;48.872;2.400;2023-01-13T01:48:26;13.60;99.90
69418;DHT22;56610;48.872;2.400;2023-01-13T01:50:52;13.70;99.90
69418;DHT22;56610;48.872;2.400;2023-01-13T01:53:20;13.70;99.90
69418;DHT22;56610;48.872;2.400;2023-01-13T01:55:47;13.60;99.90
69418;DHT22;56610;48.872;2.400;2023-01-13T01:58:44;13.60;99.90
69418;DHT22;56610;48.872;2.400;2023-01-13T02:01:11;13.60;99.90
69418;DHT22;56610;48.872;2.400;2023-01-13T02:03:38;13.50;99.90
69418;DHT22;56610;48.872;2.400;2023-01-13T02:06:06;13.50;99.90
69418;DHT22;56610;48.872;2.400;2023-01-13T02:08:32;13.50;99.90
69418;DHT22;56610;48.872;2.400;2023-01-13T02:10:59;13.50;99.90
69418;DHT22;56610;48.872;2.400;2023-01-13T02:13:24;13.70;99.90
69418;DHT22;56610;48.872;2.400;2023-01-13T02:16:06;13.60;99.90
69418;DHT22;56610;48.872;2.400;2023-01-13T02:18:52;13.50;99.90
69418;DHT22;56610;48.872;2.400;2023-01-13T02:21:43;13.40;99.90
69418;DHT22;56610;48.872;2.400;2023-01-13T02:24:53;13.50;99.90
69418;DHT22;56610;48.872;2.400;2023-01-13T02:27:48;13.60;99.90
69418;DHT22;56610;48.872;2.400;2023-01-13T02:33:34;13.60;99.90
69418;DHT22;56610;48.872;2.400;2023-01-13T02:36:16;13.50;99.90
69418;DHT22;56610;48.872;2.400;2023-01-13T02:38:56;13.50;99.90
69418;DHT22;56610;48.872;2.400;2023-01-13T02:41:53;13.30;99.90
69418;DHT22;56610;48.872;2.400;2023-01-13T02:44:52;13.40;99.90
69418;DHT22;56610;48.872;2.400;2023-01-13T02:47:24;13.30;99.90
69418;DHT22;56610;48.872;2.400;2023-01-13T02:49:59;13.40;99.90
69418;DHT22;56610;48.872;2.400;2023-01-13T02:52:39;13.50;99.90
69418;DHT22;56610;48.872;2.400;2023-01-13T02:55:12;13.30;99.90
69418;DHT22;56610;48.872;2.400;2023-01-13T02:57:40;13.20;99.90
69418;DHT22;56610;48.872;2.400;2023-01-13T03:00:08;13.20;99.90
69418;DHT22;56610;48.872;2.400;2023-01-13T03:02:34;13.10;99.90
69418;DHT22;56610;48.872;2.400;2023-01-13T03:05:00;13.10;99.90
69418;DHT22;56610;48.872;2.400;2023-01-13T03:10:09;13.10;99.90
69418;DHT22;56610;48.872;2.400;2023-01-13T03:15:52;13.00;99.90
69418;DHT22;56610;48.872;2.400;2023-01-13T03:23:47;13.40;99.90
69418;DHT22;56610;48.872;2.400;2023-01-13T03:26:26;13.50;99.90
69418;DHT22;56610;48.872;2.400;2023-01-13T03:29:02;13.40;99.90
69418;DHT22;56610;48.872;2.400;2023-01-13T03:31:33;13.20;99.90
69418;DHT22;56610;48.872;2.400;2023-01-13T03:34:12;13.20;99.90
69418;DHT22;56610;48.872;2.400;2023-01-13T03:36:40;13.20;99.90
69418;DHT22;56610;48.872;2.400;2023-01-13T03:39:09;13.10;99.90
69418;DHT22;56610;48.872;2.400;2023-01-13T03:41:50;13.10;99.90
69418;DHT22;56610;48.872;2.400;2023-01-13T03:44:19;13.10;99.90
69418;DHT22;56610;48.872;2.400;2023-01-13T03:49:15;13.00;99.90
69418;DHT22;56610;48.872;2.400;2023-01-13T03:51:46;13.00;99.90
69418;DHT22;56610;48.872;2.400;2023-01-13T03:54:16;13.10;99.90
69418;DHT22;56610;48.872;2.400;2023-01-13T03:56:48;13.10;99.90
69418;DHT22;56610;48.872;2.400;2023-01-13T03:59:24;13.20;99.90
69418;DHT22;56610;48.872;2.400;2023-01-13T04:02:06;13.20;99.90
69418;DHT22;56610;48.872;2.400;2023-01-13T04:07:40;13.10;99.90
69418;DHT22;56610;48.872;2.400;2023-01-13T04:10:10;13.00;99.90
69418;DHT22;56610;48.872;2.400;2023-01-13T04:12:52;13.10;99.90
69418;DHT22;56610;48.872;2.400;2023-01-13T04:15:38;13.10;99.90
69418;DHT22;56610;48.872;2.400;2023-01-13T04:18:24;13.10;99.90
69418;DHT22;56610;48.872;2.400;2023-01-13T04:20:51;13.10;99.90
69418;DHT22;56610;48.872;2.400;2023-01-13T04:23:18;13.10;99.90
69418;DHT22;56610;48.872;2.400;2023-01-13T04:25:45;13.00;99.90
69418;DHT22;56610;48.872;2.400;2023-01-13T04:28:12;13.10;99.90
69418;DHT22;56610;48.872;2.400;2023-01-13T04:30:38;13.20;99.90
69418;DHT22;56610;48.872;2.400;2023-01-13T04:33:04;13.00;99.90
69418;DHT22;56610;48.872;2.400;2023-01-13T04:35:31;13.00;99.90
69418;DHT22;56610;48.872;2.400;2023-01-13T04:38:02;13.00;99.90
69418;DHT22;56610;48.872;2.400;2023-01-13T04:40:29;12.90;99.90
69418;DHT22;56610;48.872;2.400;2023-01-13T04:42:54;13.00;99.90
69418;DHT22;56610;48.872;2.400;2023-01-13T04:45:20;12.90;99.90
69418;DHT22;56610;48.872;2.400;2023-01-13T04:47:46;12.80;99.90
69418;DHT22;56610;48.872;2.400;2023-01-13T04:50:13;12.80;99.90
69418;DHT22;56610;48.872;2.400;2023-01-13T04:52:39;12.80;99.90
69418;DHT22;56610;48.872;2.400;2023-01-13T04:55:05;12.70;99.90
69418;DHT22;56610;48.872;2.400;2023-01-13T04:57:32;12.70;99.90
69418;DHT22;56610;48.872;2.400;2023-01-13T04:59:59;12.70;99.90
69418;DHT22;56610;48.872;2.400;2023-01-13T05:02:25;12.70;99.90
69418;DHT22;56610;48.872;2.400;2023-01-13T05:04:50;12.80;99.90
69418;DHT22;56610;48.872;2.400;2023-01-13T05:07:16;12.70;99.90
69418;DHT22;56610;48.872;2.400;2023-01-13T05:09:42;12.60;99.90
69418;DHT22;56610;48.872;2.400;2023-01-13T05:12:09;12.50;99.90
69418;DHT22;56610;48.872;2.400;2023-01-13T05:14:53;12.50;99.90
69418;DHT22;56610;48.872;2.400;2023-01-13T05:17:37;12.40;99.90
69418;DHT22;56610;48.872;2.400;2023-01-13T05:20:03;12.40;99.90
69418;DHT22;56610;48.872;2.400;2023-01-13T05:22:29;12.40;99.90
69418;DHT22;56610;48.872;2.400;2023-01-13T05:25:13;12.30;99.90
69418;DHT22;56610;48.872;2.400;2023-01-13T05:27:59;12.30;99.90
69418;DHT22;56610;48.872;2.400;2023-01-13T05:30:31;12.30;99.90
69418;DHT22;56610;48.872;2.400;2023-01-13T05:32:57;12.30;99.90
69418;DHT22;56610;48.872;2.400;2023-01-13T05:35:23;12.30;99.90
69418;DHT22;56610;48.872;2.400;2023-01-13T05:37:49;12.40;99.90
69418;DHT22;56610;48.872;2.400;2023-01-13T05:40:16;12.30;99.90
69418;DHT22;56610;48.872;2.400;2023-01-13T05:46:03;12.30;99.90
69418;DHT22;56610;48.872;2.400;2023-01-13T05:48:31;12.30;99.90
69418;DHT22;56610;48.872;2.400;2023-01-13T05:50:57;12.30;99.90
69418;DHT22;56610;48.872;2.400;2023-01-13T05:53:23;12.40;99.90
69418;DHT22;56610;48.872;2.400;2023-01-13T05:55:49;12.40;99.90
69418;DHT22;56610;48.872;2.400;2023-01-13T05:58:16;12.50;99.90
69418;DHT22;56610;48.872;2.400;2023-01-13T06:00:43;12.40;99.90
69418;DHT22;56610;48.872;2.400;2023-01-13T06:03:09;12.50;99.90
69418;DHT22;56610;48.872;2.400;2023-01-13T06:05:35;12.60;99.90
69418;DHT22;56610;48.872;2.400;2023-01-13T06:08:03;12.70;99.90
69418;DHT22;56610;48.872;2.400;2023-01-13T06:10:29;12.80;99.90
69418;DHT22;56610;48.872;2.400;2023-01-13T06:12:55;12.80;99.90
69418;DHT22;56610;48.872;2.400;2023-01-13T06:15:21;12.90;99.90
69418;DHT22;56610;48.872;2.400;2023-01-13T06:17:47;12.90;99.90
69418;DHT22;56610;48.872;2.400;2023-01-13T06:20:13;12.90;99.90
69418;DHT22;56610;48.872;2.400;2023-01-13T06:22:42;12.80;99.90
69418;DHT22;56610;48.872;2.400;2023-01-13T06:28:05;12.60;99.90
69418;DHT22;56610;48.872;2.400;2023-01-13T06:30:46;12.60;99.90
69418;DHT22;56610;48.872;2.400;2023-01-13T06:33:20;12.60;99.90
69418;DHT22;56610;48.872;2.400;2023-01-13T06:35:52;12.40;99.90
69418;DHT22;56610;48.872;2.400;2023-01-13T06:38:20;12.30;99.90
69418;DHT22;56610;48.872;2.400;2023-01-13T06:40:46;12.40;99.90
69418;DHT22;56610;48.872;2.400;2023-01-13T06:43:12;12.50;99.90
69418;DHT22;56610;48.872;2.400;2023-01-13T06:45:50;12.50;99.90
69418;DHT22;56610;48.872;2.400;2023-01-13T06:48:19;12.50;99.90
69418;DHT22;56610;48.872;2.400;2023-01-13T06:50:46;12.40;99.90
69418;DHT22;56610;48.872;2.400;2023-01-13T06:53:11;12.40;99.90
69418;DHT22;56610;48.872;2.400;2023-01-13T06:55:37;12.40;99.90
69418;DHT22;56610;48.872;2.400;2023-01-13T06:58:03;12.40;99.90
69418;DHT22;56610;48.872;2.400;2023-01-13T07:00:29;12.30;99.90
69418;DHT22;56610;48.872;2.400;2023-01-13T07:03:14;12.30;99.90
69418;DHT22;56610;48.872;2.400;2023-01-13T07:05:41;12.30;99.90
69418;DHT22;56610;48.872;2.400;2023-01-13T07:08:08;12.30;99.90
69418;DHT22;56610;48.872;2.400;2023-01-13T07:10:35;12.30;99.90
69418;DHT22;56610;48.872;2.400;2023-01-13T07:13:02;12.30;99.90
69418;DHT22;56610;48.872;2.400;2023-01-13T07:18:19;12.40;99.90
69418;DHT22;56610;48.872;2.400;2023-01-13T07:20:51;12.60;99.90
69418;DHT22;56610;48.872;2.400;2023-01-13T07:23:16;12.80;99.90
69418;DHT22;56610;48.872;2.400;2023-01-13T07:25:42;12.70;99.90
69418;DHT22;56610;48.872;2.400;2023-01-13T07:28:07;12.70;99.90
69418;DHT22;56610;48.872;2.400;2023-01-13T07:30:33;12.60;99.90
69418;DHT22;56610;48.872;2.400;2023-01-13T07:32:59;12.60;99.90
69418;DHT22;56610;48.872;2.400;2023-01-13T07:35:24;12.50;99.90
69418;DHT22;56610;48.872;2.400;2023-01-13T07:37:50;12.40;99.90
69418;DHT22;56610;48.872;2.400;2023-01-13T07:40:15;12.40;99.90
69418;DHT22;56610;48.872;2.400;2023-01-13T07:42:41;12.30;99.90
69418;DHT22;56610;48.872;2.400;2023-01-13T07:45:25;12.20;99.90
69418;DHT22;56610;48.872;2.400;2023-01-13T07:47:51;12.10;99.90
69418;DHT22;56610;48.872;2.400;2023-01-13T07:50:18;11.90;99.90
69418;DHT22;56610;48.872;2.400;2023-01-13T07:52:45;11.80;99.90
69418;DHT22;56610;48.872;2.400;2023-01-13T07:55:10;11.80;99.90
69418;DHT22;56610;48.872;2.400;2023-01-13T07:57:36;11.70;99.90
69418;DHT22;56610;48.872;2.400;2023-01-13T08:00:03;11.60;99.90
69418;DHT22;56610;48.872;2.400;2023-01-13T08:02:29;11.40;99.90
69418;DHT22;56610;48.872;2.400;2023-01-13T08:04:54;11.50;99.90
69418;DHT22;56610;48.872;2.400;2023-01-13T08:07:20;11.40;99.90
69418;DHT22;56610;48.872;2.400;2023-01-13T08:09:45;11.50;99.90
69418;DHT22;56610;48.872;2.400;2023-01-13T08:12:11;11.50;99.90
69418;DHT22;56610;48.872;2.400;2023-01-13T08:14:56;11.50;99.90
69418;DHT22;56610;48.872;2.400;2023-01-13T08:17:21;11.50;99.90
69418;DHT22;56610;48.872;2.400;2023-01-13T08:19:47;11.60;99.90
69418;DHT22;56610;48.872;2.400;2023-01-13T08:22:12;11.60;99.90
69418;DHT22;56610;48.872;2.400;2023-01-13T08:24:38;11.70;99.90
69418;DHT22;56610;48.872;2.400;2023-01-13T08:27:04;11.90;99.90
69418;DHT22;56610;48.872;2.400;2023-01-13T08:29:29;11.80;99.90
69418;DHT22;56610;48.872;2.400;2023-01-13T08:31:55;11.90;99.90
69418;DHT22;56610;48.872;2.400;2023-01-13T08:34:20;11.80;99.90
69418;DHT22;56610;48.872;2.400;2023-01-13T08:36:48;11.90;99.90
69418;DHT22;56610;48.872;2.400;2023-01-13T08:39:14;11.80;99.90
69418;DHT22;56610;48.872;2.400;2023-01-13T08:41:42;11.70;99.90
69418;DHT22;56610;48.872;2.400;2023-01-13T08:44:20;11.50;99.90
69418;DHT22;56610;48.872;2.400;2023-01-13T08:46:46;11.70;99.90
69418;DHT22;56610;48.872;2.400;2023-01-13T08:49:12;11.60;99.90
69418;DHT22;56610;48.872;2.400;2023-01-13T08:51:37;11.60;99.90
69418;DHT22;56610;48.872;2.400;2023-01-13T08:54:03;11.50;99.90
69418;DHT22;56610;48.872;2.400;2023-01-13T08:56:29;11.60;99.90
69418;DHT22;56610;48.872;2.400;2023-01-13T08:58:58;11.50;99.90
69418;DHT22;56610;48.872;2.400;2023-01-13T09:01:24;11.50;99.90
69418;DHT22;56610;48.872;2.400;2023-01-13T09:03:50;11.50;99.90
69418;DHT22;56610;48.872;2.400;2023-01-13T09:06:16;11.50;99.90
69418;DHT22;56610;48.872;2.400;2023-01-13T09:08:42;11.50;99.90
69418;DHT22;56610;48.872;2.400;2023-01-13T09:11:18;11.60;99.90
69418;DHT22;56610;48.872;2.400;2023-01-13T09:14:03;11.70;99.90
69418;DHT22;56610;48.872;2.400;2023-01-13T09:16:28;11.80;99.90
69418;DHT22;56610;48.872;2.400;2023-01-13T09:18:54;11.70;99.90
69418;DHT22;56610;48.872;2.400;2023-01-13T09:21:21;11.80;99.90
69418;DHT22;56610;48.872;2.400;2023-01-13T09:23:47;11.80;99.90
69418;DHT22;56610;48.872;2.400;2023-01-13T09:26:19;11.90;99.90
69418;DHT22;56610;48.872;2.400;2023-01-13T09:28:45;12.00;99.90
69418;DHT22;56610;48.872;2.400;2023-01-13T09:31:12;12.10;99.90
69418;DHT22;56610;48.872;2.400;2023-01-13T09:33:38;12.20;99.90
69418;DHT22;56610;48.872;2.400;2023-01-13T09:36:22;12.20;99.90
69418;DHT22;56610;48.872;2.400;2023-01-13T09:38:48;12.30;99.90
69418;DHT22;56610;48.872;2.400;2023-01-13T09:41:19;12.30;99.90
69418;DHT22;56610;48.872;2.400;2023-01-13T09:44:06;12.30;99.90
69418;DHT22;56610;48.872;2.400;2023-01-13T09:46:48;12.30;99.90
69418;DHT22;56610;48.872;2.400;2023-01-13T09:49:19;12.20;99.90
69418;DHT22;56610;48.872;2.400;2023-01-13T09:51:54;12.20;99.90
69418;DHT22;56610;48.872;2.400;2023-01-13T09:54:43;12.10;99.90
69418;DHT22;56610;48.872;2.400;2023-01-13T09:57:14;12.10;99.90
69418;DHT22;56610;48.872;2.400;2023-01-13T09:59:41;12.00;99.90
69418;DHT22;56610;48.872;2.400;2023-01-13T10:04:35;12.10;99.90
69418;DHT22;56610;48.872;2.400;2023-01-13T10:07:01;12.20;99.90
69418;DHT22;56610;48.872;2.400;2023-01-13T10:09:52;12.30;99.90
69418;DHT22;56610;48.872;2.400;2023-01-13T10:12:22;12.30;99.90
69418;DHT22;56610;48.872;2.400;2023-01-13T10:15:21;12.30;99.90
69418;DHT22;56610;48.872;2.400;2023-01-13T10:18:03;12.40;99.90
69418;DHT22;56610;48.872;2.400;2023-01-13T10:28:58;12.40;99.90
69418;DHT22;56610;48.872;2.400;2023-01-13T10:31:25;12.30;99.90
69418;DHT22;56610;48.872;2.400;2023-01-13T10:33:57;12.30;99.90
69418;DHT22;56610;48.872;2.400;2023-01-13T10:36:23;12.30;99.90
69418;DHT22;56610;48.872;2.400;2023-01-13T10:38:49;12.40;99.90
69418;DHT22;56610;48.872;2.400;2023-01-13T10:44:04;12.50;99.90
69418;DHT22;56610;48.872;2.400;2023-01-13T10:46:35;12.50;99.90
69418;DHT22;56610;48.872;2.400;2023-01-13T10:49:31;12.70;99.90
69418;DHT22;56610;48.872;2.400;2023-01-13T10:51:59;12.90;99.90
69418;DHT22;56610;48.872;2.400;2023-01-13T10:54:25;12.90;99.90
69418;DHT22;56610;48.872;2.400;2023-01-13T10:57:14;12.90;99.90
69418;DHT22;56610;48.872;2.400;2023-01-13T10:59:43;12.90;99.90
69418;DHT22;56610;48.872;2.400;2023-01-13T11:15:17;13.30;99.90
69418;DHT22;56610;48.872;2.400;2023-01-13T11:18:07;13.20;99.90
69418;DHT22;56610;48.872;2.400;2023-01-13T11:20:39;13.10;99.90
69418;DHT22;56610;48.872;2.400;2023-01-13T11:23:15;12.90;99.90
69418;DHT22;56610;48.872;2.400;2023-01-13T11:25:44;13.00;99.90
69418;DHT22;56610;48.872;2.400;2023-01-13T11:30:49;13.10;99.90
69418;DHT22;56610;48.872;2.400;2023-01-13T11:33:47;13.20;99.90
69418;DHT22;56610;48.872;2.400;2023-01-13T11:36:30;13.20;99.90
69418;DHT22;56610;48.872;2.400;2023-01-13T11:41:47;13.20;99.90
69418;DHT22;56610;48.872;2.400;2023-01-13T11:47:26;12.90;99.90
69418;DHT22;56610;48.872;2.400;2023-01-13T11:49:52;13.00;99.90
69418;DHT22;56610;48.872;2.400;2023-01-13T11:52:26;13.00;99.90
69418;DHT22;56610;48.872;2.400;2023-01-13T11:55:15;13.10;99.90
69418;DHT22;56610;48.872;2.400;2023-01-13T12:00:35;13.40;99.90
69418;DHT22;56610;48.872;2.400;2023-01-13T12:03:23;13.50;99.90
69418;DHT22;56610;48.872;2.400;2023-01-13T12:11:35;13.80;99.90
69418;DHT22;56610;48.872;2.400;2023-01-13T12:14:47;13.90;99.90
69418;DHT22;56610;48.872;2.400;2023-01-13T12:20:24;13.90;99.90
69418;DHT22;56610;48.872;2.400;2023-01-13T12:22:56;13.90;99.90
69418;DHT22;56610;48.872;2.400;2023-01-13T12:25:33;14.00;99.90
69418;DHT22;56610;48.872;2.400;2023-01-13T12:28:14;14.00;99.90
69418;DHT22;56610;48.872;2.400;2023-01-13T12:41:53;14.10;99.90
69418;DHT22;56610;48.872;2.400;2023-01-13T12:45:18;14.20;99.90
69418;DHT22;56610;48.872;2.400;2023-01-13T12:47:46;14.30;99.90
69418;DHT22;56610;48.872;2.400;2023-01-13T12:52:59;14.30;99.90
69418;DHT22;56610;48.872;2.400;2023-01-13T12:58:20;14.30;99.90
69418;DHT22;56610;48.872;2.400;2023-01-13T13:01:00;14.30;99.90
69418;DHT22;56610;48.872;2.400;2023-01-13T13:03:34;14.40;99.90
69418;DHT22;56610;48.872;2.400;2023-01-13T13:08:49;14.50;99.90
69418;DHT22;56610;48.872;2.400;2023-01-13T13:11:33;14.30;99.90
69418;DHT22;56610;48.872;2.400;2023-01-13T13:19:58;13.90;99.90
69418;DHT22;56610;48.872;2.400;2023-01-13T13:27:38;14.00;99.90
69418;DHT22;56610;48.872;2.400;2023-01-13T13:35:59;14.30;99.90
69418;DHT22;56610;48.872;2.400;2023-01-13T13:38:34;14.20;99.90
69418;DHT22;56610;48.872;2.400;2023-01-13T13:41:24;14.30;99.90
69418;DHT22;56610;48.872;2.400;2023-01-13T13:44:29;14.40;99.90
69418;DHT22;56610;48.872;2.400;2023-01-13T13:47:13;14.20;99.90
69418;DHT22;56610;48.872;2.400;2023-01-13T13:49:41;14.20;99.90
69418;DHT22;56610;48.872;2.400;2023-01-13T13:52:37;14.20;99.90
69418;DHT22;56610;48.872;2.400;2023-01-13T13:55:13;14.10;99.90
69418;DHT22;56610;48.872;2.400;2023-01-13T13:57:47;14.20;99.90
69418;DHT22;56610;48.872;2.400;2023-01-13T14:02:47;14.10;99.90
69418;DHT22;56610;48.872;2.400;2023-01-13T14:05:22;14.00;99.90
69418;DHT22;56610;48.872;2.400;2023-01-13T14:07:50;13.90;99.90
69418;DHT22;56610;48.872;2.400;2023-01-13T14:10:22;13.90;99.90
69418;DHT22;56610;48.872;2.400;2023-01-13T14:12:50;13.80;99.90
69418;DHT22;56610;48.872;2.400;2023-01-13T14:17:58;13.70;99.90
69418;DHT22;56610;48.872;2.400;2023-01-13T14:20:25;13.70;99.90
69418;DHT22;56610;48.872;2.400;2023-01-13T14:22:53;13.60;99.90
69418;DHT22;56610;48.872;2.400;2023-01-13T14:25:37;13.70;99.90
69418;DHT22;56610;48.872;2.400;2023-01-13T14:30:38;13.60;99.90
69418;DHT22;56610;48.872;2.400;2023-01-13T14:33:04;13.50;99.90
69418;DHT22;56610;48.872;2.400;2023-01-13T14:35:30;13.60;99.90
69418;DHT22;56610;48.872;2.400;2023-01-13T14:38:02;13.60;99.90
69418;DHT22;56610;48.872;2.400;2023-01-13T14:42:59;13.80;99.90
69418;DHT22;56610;48.872;2.400;2023-01-13T14:45:25;13.80;99.90
69418;DHT22;56610;48.872;2.400;2023-01-13T14:47:52;13.90;99.90
69418;DHT22;56610;48.872;2.400;2023-01-13T14:50:21;13.70;99.90
69418;DHT22;56610;48.872;2.400;2023-01-13T14:52:53;13.70;99.90
69418;DHT22;56610;48.872;2.400;2023-01-13T14:55:31;13.70;99.90
69418;DHT22;56610;48.872;2.400;2023-01-13T14:58:26;13.70;99.90
69418;DHT22;56610;48.872;2.400;2023-01-13T15:01:27;13.80;99.90
69418;DHT22;56610;48.872;2.400;2023-01-13T15:03:53;13.70;99.90
69418;DHT22;56610;48.872;2.400;2023-01-13T15:06:23;13.80;99.90
69418;DHT22;56610;48.872;2.400;2023-01-13T15:08:50;13.70;99.90
69418;DHT22;56610;48.872;2.400;2023-01-13T15:11:23;13.70;99.90
69418;DHT22;56610;48.872;2.400;2023-01-13T15:13:58;13.60;99.90
69418;DHT22;56610;48.872;2.400;2023-01-13T15:16:26;13.70;99.90
69418;DHT22;56610;48.872;2.400;2023-01-13T15:18:53;13.80;99.90
69418;DHT22;56610;48.872;2.400;2023-01-13T15:21:19;13.80;99.90
69418;DHT22;56610;48.872;2.400;2023-01-13T15:23:45;13.80;99.90
69418;DHT22;56610;48.872;2.400;2023-01-13T15:26:18;13.80;99.90
69418;DHT22;56610;48.872;2.400;2023-01-13T15:28:44;13.60;99.90
69418;DHT22;56610;48.872;2.400;2023-01-13T15:31:10;13.50;99.90
69418;DHT22;56610;48.872;2.400;2023-01-13T15:33:35;13.30;99.90
69418;DHT22;56610;48.872;2.400;2023-01-13T15:36:01;13.30;99.90
69418;DHT22;56610;48.872;2.400;2023-01-13T15:38:26;13.30;99.90
69418;DHT22;56610;48.872;2.400;2023-01-13T15:40:52;13.20;99.90
69418;DHT22;56610;48.872;2.400;2023-01-13T15:43:22;13.30;99.90
69418;DHT22;56610;48.872;2.400;2023-01-13T15:46:13;13.20;99.90
69418;DHT22;56610;48.872;2.400;2023-01-13T15:49:01;13.20;99.90
69418;DHT22;56610;48.872;2.400;2023-01-13T15:51:27;13.20;99.90
69418;DHT22;56610;48.872;2.400;2023-01-13T15:53:53;13.10;99.90
69418;DHT22;56610;48.872;2.400;2023-01-13T15:56:24;13.10;99.90
69418;DHT22;56610;48.872;2.400;2023-01-13T15:58:51;13.10;99.90
69418;DHT22;56610;48.872;2.400;2023-01-13T16:01:17;13.10;99.90
69418;DHT22;56610;48.872;2.400;2023-01-13T16:03:42;13.10;99.90
69418;DHT22;56610;48.872;2.400;2023-01-13T16:06:19;13.10;99.90
69418;DHT22;56610;48.872;2.400;2023-01-13T16:08:45;13.20;99.90
69418;DHT22;56610;48.872;2.400;2023-01-13T16:11:11;13.30;99.90
69418;DHT22;56610;48.872;2.400;2023-01-13T16:13:37;13.40;99.90
69418;DHT22;56610;48.872;2.400;2023-01-13T16:16:04;13.40;99.90
69418;DHT22;56610;48.872;2.400;2023-01-13T16:18:34;13.40;99.90
69418;DHT22;56610;48.872;2.400;2023-01-13T16:21:00;13.60;99.90
69418;DHT22;56610;48.872;2.400;2023-01-13T16:23:25;13.50;99.90
69418;DHT22;56610;48.872;2.400;2023-01-13T16:25:51;13.40;99.90
69418;DHT22;56610;48.872;2.400;2023-01-13T16:28:22;13.30;99.90
69418;DHT22;56610;48.872;2.400;2023-01-13T16:30:50;13.40;99.90
69418;DHT22;56610;48.872;2.400;2023-01-13T16:33:16;13.40;99.90
69418;DHT22;56610;48.872;2.400;2023-01-13T16:35:42;13.20;99.90
69418;DHT22;56610;48.872;2.400;2023-01-13T16:38:17;13.30;99.90
69418;DHT22;56610;48.872;2.400;2023-01-13T16:40:43;13.30;99.90
69418;DHT22;56610;48.872;2.400;2023-01-13T16:43:13;13.20;99.90
69418;DHT22;56610;48.872;2.400;2023-01-13T16:45:39;13.20;99.90
69418;DHT22;56610;48.872;2.400;2023-01-13T16:48:05;13.20;99.90
69418;DHT22;56610;48.872;2.400;2023-01-13T16:50:34;13.20;99.90
69418;DHT22;56610;48.872;2.400;2023-01-13T16:53:02;13.10;99.90
69418;DHT22;56610;48.872;2.400;2023-01-13T16:55:28;13.10;99.90
69418;DHT22;56610;48.872;2.400;2023-01-13T16:57:54;13.00;99.90
69418;DHT22;56610;48.872;2.400;2023-01-13T17:00:20;13.00;99.90
69418;DHT22;56610;48.872;2.400;2023-01-13T17:02:46;12.90;99.90
69418;DHT22;56610;48.872;2.400;2023-01-13T17:05:12;12.80;99.90
69418;DHT22;56610;48.872;2.400;2023-01-13T17:07:40;12.80;99.90
69418;DHT22;56610;48.872;2.400;2023-01-13T17:10:06;12.70;99.90
69418;DHT22;56610;48.872;2.400;2023-01-13T17:12:32;12.70;99.90
69418;DHT22;56610;48.872;2.400;2023-01-13T17:14:57;12.60;99.90
69418;DHT22;56610;48.872;2.400;2023-01-13T17:17:25;12.50;99.90
69418;DHT22;56610;48.872;2.400;2023-01-13T17:19:51;12.50;99.90
69418;DHT22;56610;48.872;2.400;2023-01-13T17:22:18;12.40;99.90
69418;DHT22;56610;48.872;2.400;2023-01-13T17:24:44;12.40;99.90
69418;DHT22;56610;48.872;2.400;2023-01-13T17:27:10;12.40;99.90
69418;DHT22;56610;48.872;2.400;2023-01-13T17:29:35;12.40;99.90
69418;DHT22;56610;48.872;2.400;2023-01-13T17:32:01;12.60;99.90
69418;DHT22;56610;48.872;2.400;2023-01-13T17:34:27;12.70;99.90
69418;DHT22;56610;48.872;2.400;2023-01-13T17:36:52;12.80;99.90
69418;DHT22;56610;48.872;2.400;2023-01-13T17:39:24;12.70;99.90
69418;DHT22;56610;48.872;2.400;2023-01-13T17:41:50;12.70;99.90
69418;DHT22;56610;48.872;2.400;2023-01-13T17:44:18;12.80;99.90
69418;DHT22;56610;48.872;2.400;2023-01-13T17:46:44;12.90;99.90
69418;DHT22;56610;48.872;2.400;2023-01-13T17:49:14;12.80;99.90
69418;DHT22;56610;48.872;2.400;2023-01-13T17:51:40;12.80;99.90
69418;DHT22;56610;48.872;2.400;2023-01-13T17:54:07;12.80;99.90
69418;DHT22;56610;48.872;2.400;2023-01-13T17:56:37;13.00;99.90